createdAt,value
2018-06-24T00:01:57.758Z,5.80
2018-06-24T00:04:26.025Z,5.33
2018-06-24T00:06:54.284Z,6.23
2018-06-24T00:09:22.590Z,6.50
2018-06-24T00:11:50.880Z,6.57
2018-06-24T00:14:19.143Z,6.37
2018-06-24T00:16:47.432Z,6.43
2018-06-24T00:19:15.674Z,5.47
2018-06-24T00:21:43.949Z,6.50
2018-06-24T00:24:12.192Z,5.83
2018-06-24T00:26:40.711Z,6.60
2018-06-24T00:29:08.986Z,6.10
2018-06-24T00:31:37.241Z,5.87
2018-06-24T00:34:05.567Z,5.33
2018-06-24T00:36:33.854Z,5.37
2018-06-24T00:39:02.114Z,5.47
2018-06-24T00:41:30.377Z,5.37
2018-06-24T00:43:58.631Z,6.47
2018-06-24T00:46:26.833Z,6.37
2018-06-24T00:48:55.155Z,6.07
2018-06-24T00:51:23.393Z,6.10
2018-06-24T00:53:51.673Z,6.00
2018-06-24T00:56:19.947Z,5.23
2018-06-24T00:58:48.207Z,5.77
2018-06-24T01:01:16.444Z,6.30
2018-06-24T01:03:44.732Z,6.27
2018-06-24T01:06:12.727Z,5.20
2018-06-24T01:08:40.983Z,5.53
2018-06-24T01:11:09.258Z,5.37
2018-06-24T01:13:37.561Z,6.20
2018-06-24T01:16:05.839Z,5.13
2018-06-24T01:18:34.136Z,5.97
2018-06-24T01:21:02.429Z,5.23
2018-06-24T01:23:30.691Z,6.07
2018-06-24T01:25:58.990Z,5.30
2018-06-24T01:28:27.267Z,6.10
2018-06-24T01:30:55.538Z,6.33
2018-06-24T01:33:23.782Z,6.10
2018-06-24T01:35:52.039Z,6.10
2018-06-24T01:38:20.281Z,5.73
2018-06-24T01:40:48.599Z,6.00
2018-06-24T01:43:16.872Z,5.70
2018-06-24T01:45:45.111Z,6.10
2018-06-24T01:48:13.367Z,5.90
2018-06-24T01:50:41.631Z,5.40
2018-06-24T01:53:09.926Z,5.27
2018-06-24T01:55:38.187Z,5.50
2018-06-24T01:58:06.503Z,5.37
2018-06-24T02:00:34.513Z,5.40
2018-06-24T02:03:02.794Z,5.50
2018-06-24T02:05:31.072Z,5.80
2018-06-24T02:07:59.347Z,5.87
2018-06-24T02:10:27.603Z,6.70
2018-06-24T02:12:56.255Z,5.80
2018-06-24T02:15:24.252Z,6.10
2018-06-24T02:17:52.497Z,6.40
2018-06-24T02:20:20.478Z,6.43
2018-06-24T02:22:55.547Z,6.33
2018-06-24T02:25:23.827Z,6.53
2018-06-24T02:27:52.075Z,6.57
2018-06-24T02:30:20.347Z,5.80
2018-06-24T02:32:48.604Z,5.90
2018-06-24T02:35:16.602Z,5.97
2018-06-24T02:37:44.868Z,5.90
2018-06-24T02:40:13.151Z,5.93
2018-06-24T02:42:41.415Z,5.57
2018-06-24T02:45:09.455Z,6.27
2018-06-24T02:47:37.795Z,5.83
2018-06-24T02:50:06.078Z,5.63
2018-06-24T02:52:35.128Z,6.43
2018-06-24T02:55:03.165Z,6.87
2018-06-24T02:57:31.431Z,6.20
2018-06-24T02:59:59.651Z,6.37
2018-06-24T03:02:27.971Z,5.67
2018-06-24T03:04:56.195Z,6.07
2018-06-24T03:07:24.218Z,5.77
2018-06-24T03:09:59.005Z,5.57
2018-06-24T03:12:27.274Z,6.20
2018-06-24T03:14:55.241Z,6.13
2018-06-24T03:17:23.541Z,6.60
2018-06-24T03:19:51.811Z,6.53
2018-06-24T03:22:20.100Z,6.50
2018-06-24T03:24:48.368Z,6.03
2018-06-24T03:27:16.624Z,6.07
2018-06-24T03:29:44.919Z,5.80
2018-06-24T03:32:13.168Z,6.00
2018-06-24T03:34:41.452Z,6.20
2018-06-24T03:37:09.748Z,6.30
2018-06-24T03:39:38.019Z,5.53
2018-06-24T03:42:06.328Z,5.20
2018-06-24T03:44:34.646Z,5.70
2018-06-24T03:47:02.635Z,6.07
2018-06-24T03:49:30.905Z,5.73
2018-06-24T03:51:58.873Z,6.53
2018-06-24T03:54:26.851Z,6.10
2018-06-24T03:56:55.149Z,6.30
2018-06-24T03:59:23.398Z,7.23
2018-06-24T04:01:51.659Z,7.00
2018-06-24T04:04:19.763Z,6.30
2018-06-24T04:06:48.116Z,6.37
2018-06-24T04:09:16.649Z,7.13
2018-06-24T04:11:45.104Z,7.07
2018-06-24T04:14:13.656Z,6.20
2018-06-24T04:16:42.158Z,6.20
2018-06-24T04:19:10.763Z,7.17
2018-06-24T04:21:39.282Z,6.27
2018-06-24T04:24:07.791Z,6.30
2018-06-24T04:26:36.259Z,6.33
2018-06-24T04:29:04.818Z,6.97
2018-06-24T04:31:33.524Z,6.60
2018-06-24T04:34:01.910Z,6.50
2018-06-24T04:36:30.442Z,6.50
2018-06-24T04:38:58.896Z,7.07
2018-06-24T04:41:27.415Z,6.50
2018-06-24T04:43:55.844Z,6.83
2018-06-24T04:46:24.358Z,6.70
2018-06-24T04:48:52.863Z,6.47
2018-06-24T04:51:21.403Z,7.03
2018-06-24T04:53:49.921Z,7.83
2018-06-24T04:56:18.401Z,7.83
2018-06-24T04:58:46.913Z,7.57
2018-06-24T05:01:15.449Z,8.33
2018-06-24T05:03:44.039Z,10.33
2018-06-24T05:06:12.517Z,11.33
2018-06-24T05:08:41.116Z,11.30
2018-06-24T05:11:09.592Z,11.00
2018-06-24T05:13:38.424Z,11.60
2018-06-24T05:16:06.593Z,11.20
2018-06-24T05:18:35.010Z,11.40
2018-06-24T05:21:03.515Z,11.60
2018-06-24T05:23:32.034Z,11.93
2018-06-24T05:26:00.603Z,13.47
2018-06-24T05:28:29.112Z,13.47
2018-06-24T05:30:57.620Z,13.57
2018-06-24T05:33:26.023Z,14.20
2018-06-24T05:35:54.480Z,15.67
2018-06-24T05:38:23.005Z,16.20
2018-06-24T05:40:51.296Z,15.87
2018-06-24T05:43:19.599Z,16.83
2018-06-24T05:45:47.874Z,15.17
2018-06-24T05:48:16.149Z,16.00
2018-06-24T05:50:44.471Z,16.07
2018-06-24T05:53:12.701Z,17.57
2018-06-24T05:55:41.003Z,15.60
2018-06-24T05:58:09.256Z,15.43
2018-06-24T06:00:37.586Z,15.30
2018-06-24T06:03:06.027Z,16.27
2018-06-24T06:05:34.359Z,15.10
2018-06-24T06:08:02.636Z,15.00
2018-06-24T06:10:30.963Z,15.00
2018-06-24T06:12:58.977Z,16.07
2018-06-24T06:15:27.263Z,14.33
2018-06-24T06:17:55.570Z,14.63
2018-06-24T06:20:23.880Z,14.27
2018-06-24T06:22:52.234Z,12.97
2018-06-24T06:25:20.575Z,13.47
2018-06-24T06:27:48.855Z,14.10
2018-06-24T06:30:17.179Z,14.00
2018-06-24T06:32:45.475Z,12.57
2018-06-24T06:35:13.723Z,13.33
2018-06-24T06:37:42.005Z,13.33
2018-06-24T06:40:10.313Z,13.87
2018-06-24T06:42:38.651Z,14.73
2018-06-24T06:45:07.054Z,14.73
2018-06-24T06:47:35.253Z,13.50
2018-06-24T06:50:03.612Z,12.27
2018-06-24T06:52:31.887Z,12.43
2018-06-24T06:55:00.166Z,12.77
2018-06-24T06:57:28.488Z,11.67
2018-06-24T06:59:56.735Z,12.70
2018-06-24T07:02:25.010Z,11.87
2018-06-24T07:04:53.291Z,12.60
2018-06-24T07:07:21.622Z,13.37
2018-06-24T07:09:49.919Z,14.17
2018-06-24T07:12:18.388Z,14.07
2018-06-24T07:14:47.216Z,15.40
2018-06-24T07:17:15.491Z,13.60
2018-06-24T07:19:44.095Z,14.33
2018-06-24T07:22:12.611Z,14.63
2018-06-24T07:24:41.063Z,15.37
2018-06-24T07:27:09.468Z,14.30
2018-06-24T07:29:37.772Z,13.80
2018-06-24T07:32:06.425Z,13.77
2018-06-24T07:34:34.736Z,14.73
2018-06-24T07:37:03.459Z,13.17
2018-06-24T07:39:31.866Z,13.07
2018-06-24T07:42:00.297Z,14.27
2018-06-24T07:44:28.599Z,12.90
2018-06-24T07:46:57.202Z,13.37
2018-06-24T07:49:25.574Z,11.93
2018-06-24T07:51:53.870Z,12.20
2018-06-24T07:54:22.156Z,11.20
2018-06-24T07:56:50.432Z,10.33
2018-06-24T07:59:18.726Z,9.90
2018-06-24T08:01:47.002Z,9.10
2018-06-24T08:04:15.292Z,8.20
2018-06-24T08:06:43.560Z,10.23
2018-06-24T08:09:12.625Z,9.23
2018-06-24T08:11:41.910Z,9.70
2018-06-24T08:14:10.216Z,9.50
2018-06-24T08:16:38.493Z,9.00
2018-06-24T08:19:06.826Z,8.40
2018-06-24T08:21:35.047Z,8.30
2018-06-24T08:24:03.327Z,9.60
2018-06-24T08:26:31.582Z,9.57
2018-06-24T08:28:59.877Z,9.50
2018-06-24T08:31:28.123Z,10.20
2018-06-24T08:33:56.431Z,9.67
2018-06-24T08:36:24.741Z,9.07
2018-06-24T08:38:52.776Z,8.30
2018-06-24T08:41:21.084Z,9.67
2018-06-24T08:43:49.116Z,8.30
2018-06-24T08:46:17.434Z,8.60
2018-06-24T08:48:45.421Z,7.53
2018-06-24T08:51:13.735Z,8.27
2018-06-24T08:53:42.014Z,7.77
2018-06-24T08:56:10.282Z,8.47
2018-06-24T08:58:38.582Z,8.30
2018-06-24T09:01:06.895Z,8.30
2018-06-24T09:03:35.214Z,8.03
2018-06-24T09:06:03.559Z,7.67
2018-06-24T09:08:31.869Z,7.97
2018-06-24T09:11:00.170Z,7.50
2018-06-24T09:13:28.892Z,8.23
2018-06-24T09:15:57.241Z,7.80
2018-06-24T09:18:25.487Z,7.67
2018-06-24T09:20:53.748Z,7.73
2018-06-24T09:23:22.059Z,8.17
2018-06-24T09:25:50.388Z,8.03
2018-06-24T09:28:18.709Z,7.20
2018-06-24T09:30:47.046Z,7.93
2018-06-24T09:33:15.327Z,8.23
2018-06-24T09:35:43.724Z,9.17
2018-06-24T09:38:12.021Z,8.77
2018-06-24T09:40:40.308Z,9.70
2018-06-24T09:43:08.648Z,8.67
2018-06-24T09:45:36.887Z,8.27
2018-06-24T09:48:05.426Z,7.42
2018-06-24T09:50:34.072Z,7.58
2018-06-24T09:53:02.991Z,8.65
2018-06-24T09:55:31.366Z,7.70
2018-06-24T09:57:59.709Z,8.20
2018-06-24T10:00:27.986Z,8.85
2018-06-24T10:02:56.393Z,7.92
2018-06-24T10:05:24.747Z,8.28
2018-06-24T10:07:53.021Z,8.88
2018-06-24T10:10:21.364Z,8.35
2018-06-24T10:12:49.661Z,6.97
2018-06-24T10:15:17.684Z,7.12
2018-06-24T10:17:45.998Z,8.75
2018-06-24T10:20:14.365Z,8.13
2018-06-24T10:22:42.595Z,6.97
2018-06-24T10:25:10.946Z,7.62
2018-06-24T10:27:38.945Z,6.65
2018-06-24T10:30:07.512Z,7.45
2018-06-24T10:32:35.871Z,6.83
2018-06-24T10:35:04.347Z,6.80
2018-06-24T10:37:32.752Z,5.83
2018-06-24T10:40:01.072Z,6.47
2018-06-24T10:42:29.369Z,5.72
2018-06-24T10:44:57.609Z,6.78
2018-06-24T10:47:25.879Z,5.55
2018-06-24T10:49:54.298Z,7.50
2018-06-24T10:52:22.598Z,6.72
2018-06-24T10:54:50.925Z,6.40
2018-06-24T10:57:19.346Z,5.92
2018-06-24T10:59:47.967Z,6.87
2018-06-24T11:02:16.303Z,6.35
2018-06-24T11:04:44.485Z,7.03
2018-06-24T11:07:12.470Z,7.03
2018-06-24T11:09:40.761Z,6.72
2018-06-24T11:12:09.082Z,5.12
2018-06-24T11:14:37.359Z,5.00
2018-06-24T11:17:05.774Z,5.58
2018-06-24T11:19:34.022Z,4.87
2018-06-24T11:22:02.026Z,4.78
2018-06-24T11:24:30.519Z,4.92
2018-06-24T11:26:58.843Z,4.90
2018-06-24T11:29:27.120Z,4.55
2018-06-24T11:31:55.386Z,4.33
2018-06-24T11:34:23.654Z,4.42
2018-06-24T11:36:51.946Z,4.00
2018-06-24T11:39:20.304Z,3.60
2018-06-24T11:41:48.546Z,3.67
2018-06-24T11:44:16.833Z,3.72
2018-06-24T11:46:45.113Z,3.60
2018-06-24T11:49:13.402Z,3.42
2018-06-24T11:51:41.729Z,7.78
2018-06-24T11:54:09.981Z,3.67
2018-06-24T11:56:38.273Z,3.17
2018-06-24T11:59:06.539Z,3.42
2018-06-24T12:01:34.744Z,3.30
2018-06-24T12:04:03.042Z,3.05
2018-06-24T12:06:31.248Z,3.50
2018-06-24T12:08:59.554Z,3.20
2018-06-24T12:11:27.890Z,3.37
2018-06-24T12:13:56.159Z,2.92
2018-06-24T12:16:24.436Z,2.65
2018-06-24T12:18:52.832Z,3.20
2018-06-24T12:21:21.095Z,3.15
2018-06-24T12:23:49.382Z,3.50
2018-06-24T12:26:17.674Z,3.22
2018-06-24T12:28:46.068Z,3.40
2018-06-24T12:31:14.367Z,2.60
2018-06-24T12:33:42.642Z,2.75
2018-06-24T12:36:10.913Z,2.22
2018-06-24T12:38:39.196Z,2.27
2018-06-24T12:41:07.546Z,2.17
2018-06-24T12:43:35.617Z,2.17
2018-06-24T12:46:03.886Z,2.20
2018-06-24T12:48:32.323Z,2.30
2018-06-24T12:51:00.691Z,2.40
2018-06-24T12:53:28.928Z,2.02
2018-06-24T12:55:57.181Z,2.85
2018-06-24T12:58:25.466Z,3.52
2018-06-24T13:00:54.083Z,2.25
2018-06-24T13:03:21.966Z,2.30
2018-06-24T13:05:50.270Z,2.20
2018-06-24T13:08:18.844Z,2.02
2018-06-24T13:10:47.148Z,1.80
2018-06-24T13:13:19.370Z,2.00
2018-06-24T13:15:48.511Z,2.10
2018-06-24T13:18:16.804Z,1.90
2018-06-24T13:20:45.126Z,2.20
2018-06-24T13:23:13.439Z,1.80
2018-06-24T13:25:41.766Z,2.10
2018-06-24T13:28:10.079Z,3.10
2018-06-24T13:30:38.428Z,1.98
2018-06-24T13:33:06.710Z,1.55
2018-06-24T13:35:35.024Z,1.60
2018-06-24T13:38:03.263Z,1.80
2018-06-24T13:40:31.562Z,1.82
2018-06-24T13:42:59.895Z,1.77
2018-06-24T13:45:28.215Z,1.67
2018-06-24T13:47:56.501Z,2.00
2018-06-24T13:50:24.784Z,1.95
2018-06-24T13:52:53.063Z,2.25
2018-06-24T13:55:21.332Z,1.90
2018-06-24T13:57:50.591Z,1.55
2018-06-24T14:00:18.888Z,2.08
2018-06-24T14:02:47.151Z,2.05
2018-06-24T14:05:15.521Z,1.98
2018-06-24T14:07:43.903Z,2.15
2018-06-24T14:10:12.239Z,1.90
2018-06-24T14:12:40.536Z,4.35
2018-06-24T14:15:08.883Z,2.62
2018-06-24T14:17:37.128Z,2.20
2018-06-24T14:20:06.016Z,1.82
2018-06-24T14:22:34.274Z,2.47
2018-06-24T14:25:02.568Z,2.47
2018-06-24T14:27:30.877Z,2.10
2018-06-24T14:30:00.112Z,2.20
2018-06-24T14:32:28.556Z,2.05
2018-06-24T14:34:56.931Z,2.10
2018-06-24T14:37:25.380Z,2.17
2018-06-24T14:39:53.655Z,2.27
2018-06-24T14:42:21.940Z,1.90
2018-06-24T14:44:50.418Z,2.37
2018-06-24T14:47:18.912Z,2.40
2018-06-24T14:49:47.473Z,2.08
2018-06-24T14:52:15.759Z,2.30
2018-06-24T14:54:44.027Z,2.85
2018-06-24T14:57:12.398Z,2.35
2018-06-24T14:59:40.671Z,2.58
2018-06-24T15:02:08.952Z,2.65
2018-06-24T15:07:11.924Z,2.12
2018-06-24T15:09:40.249Z,2.92
2018-06-24T15:12:08.612Z,2.45
2018-06-24T15:14:36.901Z,2.60
2018-06-24T15:17:06.203Z,2.75
2018-06-24T15:19:34.745Z,2.40
2018-06-24T15:22:03.100Z,2.35
2018-06-24T15:24:31.403Z,2.70
2018-06-24T15:26:59.651Z,2.43
2018-06-24T15:29:27.914Z,2.70
2018-06-24T15:31:56.252Z,4.45
2018-06-24T15:34:24.582Z,3.45
2018-06-24T15:36:52.881Z,2.65
2018-06-24T15:39:21.185Z,3.12
2018-06-24T15:41:49.500Z,3.37
2018-06-24T15:44:17.784Z,3.23
2018-06-24T15:46:46.039Z,3.50
2018-06-24T15:49:14.365Z,3.00
2018-06-24T15:51:42.678Z,3.33
2018-06-24T15:54:10.972Z,3.00
2018-06-24T15:56:39.748Z,2.60
2018-06-24T15:59:08.186Z,3.20
2018-06-24T16:01:36.484Z,3.53
2018-06-24T16:04:04.853Z,3.53
2018-06-24T16:06:33.213Z,4.20
2018-06-24T16:09:01.514Z,4.70
2018-06-24T16:11:29.848Z,4.13
2018-06-24T16:13:57.838Z,5.00
2018-06-24T16:16:26.360Z,4.13
2018-06-24T16:18:54.697Z,4.87
2018-06-24T16:21:22.985Z,4.33
2018-06-24T16:23:51.379Z,5.90
2018-06-24T16:26:19.685Z,4.37
2018-06-24T16:28:48.229Z,4.80
2018-06-24T16:31:16.572Z,4.20
2018-06-24T16:33:44.925Z,5.17
2018-06-24T16:36:13.259Z,5.43
2018-06-24T16:38:41.549Z,3.87
2018-06-24T16:41:09.867Z,3.30
2018-06-24T16:43:38.147Z,3.07
2018-06-24T16:46:06.484Z,4.10
2018-06-24T16:48:35.956Z,4.33
2018-06-24T16:51:03.973Z,4.37
2018-06-24T16:53:32.378Z,4.23
2018-06-24T16:56:00.666Z,3.60
2018-06-24T16:58:29.052Z,3.77
2018-06-24T17:00:57.434Z,3.67
2018-06-24T17:03:25.772Z,4.07
2018-06-24T17:05:54.041Z,4.17
2018-06-24T17:08:22.371Z,4.67
2018-06-24T17:10:50.748Z,4.73
2018-06-24T17:13:19.027Z,4.77
2018-06-24T17:15:47.303Z,7.90
2018-06-24T17:18:15.608Z,4.40
2018-06-24T17:20:43.875Z,3.97
2018-06-24T17:23:12.252Z,4.20
2018-06-24T17:25:40.531Z,4.00
2018-06-24T17:28:08.921Z,4.80
2018-06-24T17:30:37.155Z,3.57
2018-06-24T17:33:05.423Z,3.37
2018-06-24T17:35:33.387Z,3.47
2018-06-24T17:38:01.392Z,3.90
2018-06-24T17:40:30.096Z,3.17
2018-06-24T17:42:58.960Z,3.30
2018-06-24T17:45:27.561Z,4.83
2018-06-24T17:47:56.296Z,4.77
2018-06-24T17:50:24.746Z,3.10
2018-06-24T17:52:53.043Z,4.30
2018-06-24T17:55:21.503Z,3.37
2018-06-24T17:57:49.981Z,3.33
2018-06-24T18:00:18.422Z,3.50
2018-06-24T18:02:46.721Z,3.37
2018-06-24T18:05:15.051Z,3.60
2018-06-24T18:07:43.422Z,3.30
2018-06-24T18:10:11.952Z,3.37
2018-06-24T18:12:40.291Z,3.43
2018-06-24T18:15:08.556Z,3.53
2018-06-24T18:17:36.887Z,3.30
2018-06-24T18:20:05.226Z,3.27
2018-06-24T18:22:33.260Z,3.50
2018-06-24T18:25:01.503Z,3.93
2018-06-24T18:27:29.799Z,3.60
2018-06-24T18:29:58.104Z,3.47
2018-06-24T18:32:26.433Z,3.90
2018-06-24T18:34:54.870Z,3.47
2018-06-24T18:37:23.195Z,3.43
2018-06-24T18:39:51.783Z,3.30
2018-06-24T18:42:20.287Z,3.73
2018-06-24T18:44:48.837Z,3.73
2018-06-24T18:47:17.558Z,3.50
